Time;durP1;ratioP1;P1;durP2;ratioP2;P2;SDS_P1;SDS_P2;PMS_P1;PMS_P2;Temp;Humidity;BMP_temperature;BMP_pressure;BME280_temperature;BME280_humidity;BME280_pressure;Samples;Min_cycle;Max_cycle;Signal;HPM_P1;HPM_P2
2022/07/26 00:01:19;;;;;;;;;12.40;9.80;;;;;28.25;24.99;98869.97;5130956;27;8885;-82
2022/07/26 00:03:51;;;;;;;;;11.20;11.20;;;;;28.24;24.21;98871.78;5084701;27;8888;-80
2022/07/26 00:06:19;;;;;;;;;12.00;11.00;;;;;28.25;25.18;98875.31;5130549;27;8934;-81
2022/07/26 00:08:48;;;;;;;;;12.60;12.00;;;;;28.21;24.97;98869.38;5112249;27;8838;-80
2022/07/26 00:11:18;;;;;;;;;7.60;7.60;;;;;28.18;24.42;98866.94;5112412;27;9043;-80
2022/07/26 00:13:47;;;;;;;;;8.00;7.80;;;;;28.16;23.47;98864.38;5130949;27;8849;-81
2022/07/26 00:16:16;;;;;;;;;9.40;9.40;;;;;28.14;23.83;98860.97;5130739;27;8861;-79
2022/07/26 00:18:46;;;;;;;;;12.60;12.60;;;;;28.15;24.46;98869.91;5130173;27;8895;-79
2022/07/26 00:21:17;;;;;;;;;11.60;11.20;;;;;28.16;25.05;98866.22;5130956;27;9717;-80
2022/07/26 00:23:45;;;;;;;;;13.00;13.00;;;;;28.22;25.66;98854.97;5130705;27;8869;-82
2022/07/26 00:26:14;;;;;;;;;15.25;15.00;;;;;28.30;27.19;98865.91;5130590;27;8933;-80
2022/07/26 00:28:43;;;;;;;;;18.20;17.40;;;;;28.34;29.51;98866.50;5112052;27;8873;-81
2022/07/26 00:31:12;;;;;;;;;20.25;19.75;;;;;28.31;30.04;98869.44;5130790;27;8875;-80
2022/07/26 00:33:41;;;;;;;;;19.00;18.00;;;;;28.21;29.39;98869.38;5112668;27;8837;-79
2022/07/26 00:36:09;;;;;;;;;14.25;14.25;;;;;28.09;29.50;98865.91;5130268;27;8940;-78
2022/07/26 00:38:39;;;;;;;;;15.50;15.50;;;;;28.07;29.29;98864.31;5131525;27;9023;-79
2022/07/26 00:41:08;;;;;;;;;16.75;16.00;;;;;28.02;29.47;98867.38;5130149;27;9008;-84
2022/07/26 00:43:37;;;;;;;;;18.00;17.50;;;;;27.94;28.47;98857.31;5087411;28;9047;-80
2022/07/26 00:46:06;;;;;;;;;14.75;14.00;;;;;27.91;27.90;98856.72;5069421;28;8869;-80
2022/07/26 00:48:34;;;;;;;;;31.75;30.50;;;;;27.87;27.81;98856.09;5069327;28;8838;-82
2022/07/26 00:51:03;;;;;;;;;21.50;21.25;;;;;27.87;27.98;98863.28;5086917;28;8842;-80
2022/07/26 00:53:31;;;;;;;;;18.75;16.75;;;;;27.86;27.71;98869.59;5068887;28;8851;-79
2022/07/26 00:56:02;;;;;;;;;17.00;16.75;;;;;27.84;27.78;98860.84;5090322;28;8858;-78
2022/07/26 00:58:30;;;;;;;;;19.25;18.25;;;;;27.84;27.90;98860.84;5106970;28;9057;-81
2022/07/26 01:00:59;;;;;;;;;16.50;15.00;;;;;27.83;27.58;98860.00;5106855;28;8893;-80
2022/07/26 01:03:27;;;;;;;;;16.75;16.75;;;;;27.83;27.23;98862.69;5107346;28;8910;-81
2022/07/26 01:06:04;;;;;;;;;11.80;11.80;;;;;27.81;27.09;98865.47;5106846;28;8876;-80
2022/07/26 01:08:33;;;;;;;;;14.20;13.80;;;;;27.76;26.58;98856.97;5106361;28;8924;-83
2022/07/26 01:11:03;;;;;;;;;15.40;15.40;;;;;27.78;28.04;98865.72;5105564;28;8990;-82
2022/07/26 01:13:33;;;;;;;;;15.60;14.20;;;;;27.77;27.95;98857.84;5106144;28;8878;-79
2022/07/26 01:16:03;;;;;;;;;15.40;14.60;;;;;27.71;27.35;98855.66;5150376;27;8844;-80
2022/07/26 01:18:32;;;;;;;;;13.40;13.40;;;;;27.73;27.34;98853.69;5150028;27;8998;-80
2022/07/26 01:21:02;;;;;;;;;16.40;15.40;;;;;27.72;27.40;98846.66;5131699;27;8832;-81
2022/07/26 01:23:43;;;;;;;;;13.20;12.00;;;;;27.71;26.65;98842.25;5131495;27;8835;-79
2022/07/26 01:26:12;;;;;;;;;13.80;13.20;;;;;27.71;26.98;98839.56;5149854;27;8983;-79
2022/07/26 01:28:41;;;;;;;;;15.00;14.50;;;;;27.71;26.83;98832.41;5115812;27;8849;-79
2022/07/26 01:31:10;;;;;;;;;11.60;10.60;;;;;27.71;26.49;98835.09;5101968;27;8841;-79
2022/07/26 01:33:38;;;;;;;;;14.25;14.25;;;;;27.71;26.55;98835.09;5111571;27;8860;-78
2022/07/26 01:36:07;;;;;;;;;14.00;13.00;;;;;27.70;26.48;98829.84;5116061;27;8861;-80
2022/07/26 01:38:36;;;;;;;;;12.00;11.40;;;;;27.69;26.16;98826.28;5129588;27;8868;-81
2022/07/26 01:41:06;;;;;;;;;13.75;13.25;;;;;27.71;26.64;98831.53;5060351;27;8845;-80
2022/07/26 01:43:35;;;;;;;;;15.00;13.25;;;;;27.70;27.61;98829.84;5114625;27;8847;-81
2022/07/26 01:46:04;;;;;;;;;17.75;15.50;;;;;27.62;27.85;98827.81;5149847;27;8843;-79
2022/07/26 01:48:33;;;;;;;;;14.50;14.50;;;;;27.52;27.91;98835.72;5149791;27;8847;-81
2022/07/26 01:51:02;;;;;;;;;13.20;13.20;;;;;27.49;27.16;98829.81;5114607;27;9735;-80
2022/07/26 01:53:31;;;;;;;;;12.50;12.50;;;;;27.51;27.14;98819.81;5156971;27;8831;-80
2022/07/26 01:55:59;;;;;;;;;12.60;12.00;;;;;27.51;27.04;98826.00;5157007;27;8839;-81
2022/07/26 01:58:29;;;;;;;;;13.20;11.80;;;;;27.52;27.25;98827.69;5114247;27;8965;-80
2022/07/26 02:00:58;;;;;;;;;12.60;12.60;;;;;27.53;27.35;98824.06;5123294;27;8843;-79
2022/07/26 02:03:27;;;;;;;;;17.00;14.25;;;;;27.40;29.23;98834.91;5149852;27;8855;-81
2022/07/26 02:05:56;;;;;;;;;12.75;12.75;;;;;26.84;32.24;98829.59;5096460;27;8847;-78
2022/07/26 02:08:25;;;;;;;;;18.25;16.00;;;;;26.28;34.13;98838.38;5149622;27;8855;-80
2022/07/26 02:11:00;;;;;;;;;19.00;18.00;;;;;25.96;35.06;98839.03;5149960;27;8881;-79
2022/07/26 02:13:35;;;;;;;;;18.00;18.00;;;;;25.44;36.26;98838.41;5131210;27;8943;-79
2022/07/26 02:16:05;;;;;;;;;20.50;18.50;;;;;25.12;36.02;98834.50;5136542;27;8979;-81
2022/07/26 02:18:35;;;;;;;;;15.50;14.75;;;;;24.77;35.03;98840.53;5095353;27;8912;-80
2022/07/26 02:21:04;;;;;;;;;14.00;14.00;;;;;24.47;34.68;98831.03;5114651;27;8865;-80
2022/07/26 02:23:34;;;;;;;;;13.80;13.20;;;;;24.42;33.95;98839.31;5114834;27;8863;-80
2022/07/26 02:26:08;;;;;;;;;13.00;11.80;;;;;24.39;33.90;98833.38;5114518;27;8860;-81
2022/07/26 02:28:38;;;;;;;;;11.00;10.60;;;;;24.60;31.92;98834.56;5133211;27;8911;-79
2022/07/26 02:31:07;;;;;;;;;12.40;12.20;;;;;24.84;31.59;98823.13;5113463;27;8841;-81
2022/07/26 02:33:36;;;;;;;;;14.00;12.00;;;;;25.01;32.29;98817.47;5132864;27;8857;-80
2022/07/26 02:36:05;;;;;;;;;11.80;11.80;;;;;25.17;30.71;98817.19;5132627;27;8846;-79
2022/07/26 02:38:33;;;;;;;;;12.80;12.40;;;;;25.32;31.71;98812.59;5079125;27;8853;-81
2022/07/26 02:41:05;;;;;;;;;12.80;12.80;;;;;25.44;32.06;98810.81;5080019;27;8841;-82
2022/07/26 02:43:33;;;;;;;;;17.00;15.00;;;;;25.54;32.01;98814.53;5056214;28;8834;-81
2022/07/26 02:46:03;;;;;;;;;12.20;12.20;;;;;25.62;30.73;98798.78;5071447;28;9172;-80
2022/07/26 02:48:32;;;;;;;;;11.40;10.80;;;;;25.68;30.46;98806.31;5092863;28;8859;-78
2022/07/26 02:51:00;;;;;;;;;13.80;12.00;;;;;25.74;29.62;98810.34;5109334;28;8856;-79
2022/07/26 02:53:29;;;;;;;;;11.00;11.00;;;;;25.80;29.38;98809.91;5075393;28;8913;-78
2022/07/26 02:55:57;;;;;;;;;17.60;16.80;;;;;25.86;30.17;98797.91;5075095;28;8865;-80
2022/07/26 02:58:26;;;;;;;;;14.40;13.40;;;;;25.90;29.83;98804.72;5108745;28;9033;-79
2022/07/26 03:00:55;;;;;;;;;16.25;14.75;;;;;25.95;30.36;98804.41;5108821;28;8874;-78
2022/07/26 03:03:25;;;;;;;;;13.40;13.20;;;;;25.98;29.74;98807.69;5107839;28;8848;-78
2022/07/26 03:05:54;;;;;;;;;14.60;14.00;;;;;26.02;29.25;98805.63;5108887;28;8905;-78
2022/07/26 03:08:22;;;;;;;;;16.80;15.60;;;;;26.06;29.24;98802.59;5092326;28;8875;-80
2022/07/26 03:10:51;;;;;;;;;12.00;11.40;;;;;26.11;29.23;98796.94;5109454;28;8843;-79
2022/07/26 03:13:19;;;;;;;;;19.40;15.80;;;;;26.15;29.39;98795.72;5114021;28;8867;-79
2022/07/26 03:15:48;;;;;;;;;10.20;10.20;;;;;26.17;29.57;98803.63;5139982;27;8862;-80
2022/07/26 03:18:17;;;;;;;;;18.25;17.25;;;;;26.21;29.22;98799.72;5138428;27;8912;-80
2022/07/26 03:20:47;;;;;;;;;15.20;14.20;;;;;26.27;29.96;98796.56;5106449;27;8854;-79
2022/07/26 03:23:15;;;;;;;;;14.00;13.40;;;;;26.29;29.59;98791.97;5138574;27;8859;-82
2022/07/26 03:25:44;;;;;;;;;18.40;17.60;;;;;26.35;29.20;98782.63;5153408;27;8909;-82
2022/07/26 03:28:12;;;;;;;;;16.60;13.00;;;;;26.39;29.20;98776.94;5153044;27;8978;-81
2022/07/26 03:30:47;;;;;;;;;14.40;14.40;;;;;26.42;28.73;98774.00;5151698;27;8850;-79
2022/07/26 03:33:15;;;;;;;;;12.60;12.60;;;;;26.48;28.93;98767.31;5153135;27;8846;-80
2022/07/26 03:35:44;;;;;;;;;14.40;13.40;;;;;26.51;28.59;98771.59;5131167;27;8861;-81
2022/07/26 03:38:14;;;;;;;;;11.80;11.60;;;;;26.55;28.58;98784.56;5113472;27;8838;-83
2022/07/26 03:40:42;;;;;;;;;13.60;13.20;;;;;26.60;29.06;98778.91;5131713;27;8902;-79
2022/07/26 03:43:11;;;;;;;;;13.40;12.80;;;;;26.70;28.99;98781.72;5131995;27;8995;-81
2022/07/26 03:45:40;;;;;;;;;11.80;11.80;;;;;26.80;28.96;98777.31;5067447;28;8860;-80
2022/07/26 03:48:08;;;;;;;;;20.00;16.75;;;;;26.88;29.24;98782.03;5034847;28;8915;-82
2022/07/26 03:50:37;;;;;;;;;15.20;14.00;;;;;26.96;29.03;98779.63;5067398;28;8957;-80
2022/07/26 03:53:06;;;;;;;;;14.40;14.40;;;;;27.04;29.37;98777.16;5073625;28;9834;-80
2022/07/26 03:58:22;;;;;;;;;15.80;15.20;;;;;27.23;29.83;98773.84;5087153;28;8977;-79
2022/07/26 04:00:50;;;;;;;;;28.75;28.50;;;;;27.32;30.16;98769.59;5087509;28;8885;-77
2022/07/26 04:03:21;;;;;;;;;18.60;16.80;;;;;27.40;30.72;98770.66;5086990;28;8866;-81
2022/07/26 04:05:50;;;;;;;;;18.00;17.20;;;;;27.48;30.83;98770.00;5070710;28;8849;-81
2022/07/26 04:08:20;;;;;;;;;16.00;15.20;;;;;27.54;31.25;98772.19;5074473;28;8834;-79
2022/07/26 04:10:50;;;;;;;;;31.75;27.50;;;;;27.60;31.13;98765.47;5077002;28;8959;-81
2022/07/26 04:13:22;;;;;;;;;54.00;45.33;;;;;27.66;30.94;98769.47;5082593;28;8840;-79
2022/07/26 04:15:51;;;;;;;;;28.25;26.50;;;;;27.71;30.57;98762.75;5073848;28;8930;-81
2022/07/26 04:18:20;;;;;;;;;14.60;13.80;;;;;27.75;30.59;98768.66;5075568;28;8860;-81
2022/07/26 04:20:52;;;;;;;;;16.20;15.80;;;;;27.78;31.00;98758.56;5070566;28;8936;-80
2022/07/26 04:23:20;;;;;;;;;21.50;17.75;;;;;27.86;31.35;98760.56;5074633;27;8947;-80
2022/07/26 04:25:50;;;;;;;;;18.50;17.75;;;;;27.93;31.46;98766.31;5078355;27;8871;-81
2022/07/26 04:28:19;;;;;;;;;13.80;13.80;;;;;27.98;30.87;98762.25;5065085;27;8847;-79
2022/07/26 04:30:48;;;;;;;;;24.25;22.75;;;;;28.07;31.81;98765.13;5132939;27;8835;-80
2022/07/26 04:33:17;;;;;;;;;17.75;17.75;;;;;28.16;32.12;98767.03;5132764;27;8908;-80
2022/07/26 04:35:46;;;;;;;;;17.00;16.25;;;;;28.23;32.12;98767.34;5127650;27;8817;-78
2022/07/26 04:38:14;;;;;;;;;18.00;18.00;;;;;28.30;31.99;98758.66;5127403;27;8984;-78
2022/07/26 04:40:43;;;;;;;;;17.00;17.00;;;;;28.37;31.81;98764.31;5127179;27;8857;-81
2022/07/26 04:43:13;;;;;;;;;20.50;19.25;;;;;28.44;31.66;98757.44;5127647;27;8845;-79
2022/07/26 04:45:44;;;;;;;;;17.75;17.25;;;;;28.53;31.77;98761.19;5126072;27;8942;-79
2022/07/26 04:48:12;;;;;;;;;17.50;16.75;;;;;28.58;32.00;98754.44;5110076;27;8889;-80
2022/07/26 04:50:42;;;;;;;;;23.25;23.00;;;;;28.59;31.91;98757.97;5127259;27;8833;-81
2022/07/26 04:53:10;;;;;;;;;21.00;17.50;;;;;28.66;31.33;98750.19;5109957;27;8887;-81
2022/07/26 04:55:40;;;;;;;;;19.50;18.50;;;;;28.73;31.16;98754.03;5076443;27;8874;-81
2022/07/26 04:58:10;;;;;;;;;19.25;18.50;;;;;28.77;30.25;98756.34;5109809;27;8842;-79
2022/07/26 05:00:40;;;;;;;;;18.50;16.75;;;;;28.82;30.28;98752.38;5126489;27;8850;-81
2022/07/26 05:03:29;;;;;;;;;20.00;19.25;;;;;28.90;30.67;98750.72;5098985;27;9020;-78
2022/07/26 05:05:57;;;;;;;;;20.75;20.00;;;;;28.98;30.32;98752.72;5109691;27;8857;-80
2022/07/26 05:08:26;;;;;;;;;17.50;17.00;;;;;29.04;30.96;98748.66;5110043;27;8845;-78
2022/07/26 05:10:54;;;;;;;;;24.00;22.25;;;;;29.13;30.64;98751.38;5128126;27;8837;-81
2022/07/26 05:13:23;;;;;;;;;26.00;24.75;;;;;29.25;30.32;98751.25;5099868;27;8837;-81
2022/07/26 05:15:59;;;;;;;;;17.25;17.00;;;;;29.37;29.27;98755.50;5137251;27;8842;-80
2022/07/26 05:18:30;;;;;;;;;15.25;15.25;;;;;29.48;28.14;98757.19;5079163;27;8933;-83
2022/07/26 05:21:18;;;;;;;;;18.25;17.25;;;;;29.64;27.80;98757.50;5131614;27;8906;-82
2022/07/26 05:23:47;;;;;;;;;16.75;16.75;;;;;29.74;28.19;98755.66;5112905;27;8864;-83
2022/07/26 05:26:15;;;;;;;;;16.75;16.00;;;;;29.89;27.71;98755.25;5112170;27;8838;-80
2022/07/26 05:28:44;;;;;;;;;17.50;15.50;;;;;30.03;27.76;98759.31;5112862;27;8826;-80
2022/07/26 05:31:14;;;;;;;;;18.00;17.00;;;;;30.26;27.31;98755.28;5133119;27;8849;-81
2022/07/26 05:33:43;;;;;;;;;20.75;20.50;;;;;30.46;26.63;98756.09;5138491;27;8945;-72
2022/07/26 05:36:11;;;;;;;;;20.75;20.00;;;;;30.66;26.86;98764.09;5149657;27;8831;-71
2022/07/26 05:38:40;;;;;;;;;17.75;17.25;;;;;30.81;26.10;98759.91;5147896;27;8890;-73
2022/07/26 05:41:09;;;;;;;;;15.25;14.00;;;;;30.92;26.09;98760.75;5128385;27;8845;-76
2022/07/26 05:43:37;;;;;;;;;15.00;14.50;;;;;31.00;25.36;98755.44;5127940;27;8849;-73
2022/07/26 05:46:10;;;;;;;;;18.00;16.25;;;;;31.13;26.33;98763.19;5092936;27;8900;-73
2022/07/26 05:48:40;;;;;;;;;14.75;14.00;;;;;31.23;25.13;98763.94;5128849;27;8825;-74
2022/07/26 05:51:10;;;;;;;;;13.75;13.75;;;;;31.36;24.84;98756.38;5127882;27;8845;-73
2022/07/26 05:53:39;;;;;;;;;14.50;14.50;;;;;31.48;25.04;98760.53;5128037;27;8841;-73
2022/07/26 05:56:08;;;;;;;;;14.25;13.75;;;;;31.58;24.94;98756.94;5128014;27;8876;-71
2022/07/26 05:58:37;;;;;;;;;14.20;13.20;;;;;31.65;24.53;98755.31;5127920;27;8934;-74
2022/07/26 06:01:05;;;;;;;;;13.25;13.25;;;;;31.78;24.34;98760.31;5128158;27;8960;-73
2022/07/26 06:03:34;;;;;;;;;11.75;10.75;;;;;31.91;24.27;98752.66;5127888;27;8838;-73
2022/07/26 06:06:04;;;;;;;;;11.00;11.00;;;;;32.02;24.48;98756.97;5109253;27;8864;-73
2022/07/26 06:08:34;;;;;;;;;14.00;13.25;;;;;32.14;24.35;98755.72;5127368;27;8930;-74
2022/07/26 06:11:02;;;;;;;;;12.50;12.50;;;;;32.27;24.36;98755.31;5128311;27;8838;-73
2022/07/26 06:13:31;;;;;;;;;12.75;12.50;;;;;32.38;24.04;98756.88;5127551;27;8861;-73
2022/07/26 06:16:00;;;;;;;;;11.25;11.25;;;;;32.48;23.84;98745.94;5092321;27;8834;-72
2022/07/26 06:18:29;;;;;;;;;13.75;13.00;;;;;32.61;23.26;98751.81;5127971;27;8825;-72
2022/07/26 06:20:57;;;;;;;;;14.25;14.00;;;;;32.71;23.85;98754.38;5127660;27;9021;-73
2022/07/26 06:23:31;;;;;;;;;14.50;14.50;;;;;32.82;23.43;98752.22;5060246;27;9560;-69
2022/07/26 06:26:03;;;;;;;;;15.75;15.75;;;;;32.89;23.13;98740.75;5127048;27;8992;-73
2022/07/26 06:28:32;;;;;;;;;15.25;15.25;;;;;32.99;23.26;98746.88;5091582;27;8928;-73
2022/07/26 06:31:01;;;;;;;;;15.50;15.50;;;;;33.11;23.03;98753.69;5128005;27;8873;-75
2022/07/26 06:33:29;;;;;;;;;16.25;14.50;;;;;33.20;22.26;98739.19;5127429;27;8841;-73
2022/07/26 06:35:59;;;;;;;;;15.00;15.00;;;;;33.32;21.92;98738.88;5127622;27;8841;-73
2022/07/26 06:38:28;;;;;;;;;15.50;15.50;;;;;33.38;21.54;98738.19;5127872;27;8945;-73
2022/07/26 06:40:58;;;;;;;;;19.75;18.25;;;;;33.47;21.88;98725.56;5126822;27;8866;-72
2022/07/26 06:43:27;;;;;;;;;15.25;14.00;;;;;33.51;21.51;98737.72;5127175;27;8841;-72
2022/07/26 06:45:55;;;;;;;;;17.25;16.25;;;;;33.60;20.79;98737.53;5057977;27;8895;-72
2022/07/26 06:48:24;;;;;;;;;14.00;14.00;;;;;33.67;21.36;98736.91;5127749;27;8845;-73
2022/07/26 06:50:53;;;;;;;;;14.00;14.00;;;;;33.73;21.11;98736.25;5127942;27;8830;-72
2022/07/26 06:53:22;;;;;;;;;16.75;14.50;;;;;33.82;21.11;98728.94;5127742;27;8883;-72
2022/07/26 06:55:50;;;;;;;;;15.00;12.25;;;;;33.83;20.91;98728.78;5126589;27;8853;-75
2022/07/26 06:58:20;;;;;;;;;12.25;12.25;;;;;33.89;20.77;98724.56;5141723;27;8809;-73
2022/07/26 07:00:48;;;;;;;;;16.00;15.00;;;;;33.96;20.74;98717.44;5127638;27;8842;-71
2022/07/26 07:03:17;;;;;;;;;12.50;12.00;;;;;33.98;20.59;98712.72;5074611;27;8864;-76
2022/07/26 07:05:46;;;;;;;;;11.75;11.75;;;;;33.96;20.59;98721.00;5085785;28;9591;-78
2022/07/26 07:08:20;;;;;;;;;14.25;13.25;;;;;34.01;20.61;98712.38;5033674;28;8984;-82
2022/07/26 07:10:51;;;;;;;;;15.00;15.00;;;;;34.03;20.34;98713.06;5063397;28;8952;-82
2022/07/26 07:13:23;;;;;;;;;11.75;11.75;;;;;34.07;20.38;98713.56;5055038;28;9013;-81
2022/07/26 07:15:51;;;;;;;;;13.25;12.75;;;;;34.06;20.53;98714.56;5034562;28;8841;-84
2022/07/26 07:18:21;;;;;;;;;16.00;15.00;;;;;34.13;20.55;98713.69;5051296;28;8861;-83
2022/07/26 07:20:50;;;;;;;;;14.00;14.00;;;;;34.18;20.82;98715.94;5051162;28;10070;-81
2022/07/26 07:23:21;;;;;;;;;15.00;14.75;;;;;34.15;20.54;98710.81;5033499;28;8843;-80
2022/07/26 07:25:50;;;;;;;;;14.50;14.50;;;;;34.17;20.27;98709.66;5035988;28;8858;-83
2022/07/26 07:28:18;;;;;;;;;14.00;14.00;;;;;34.19;20.95;98714.91;5022843;28;8867;-82
2022/07/26 07:30:48;;;;;;;;;14.00;13.00;;;;;34.24;20.55;98709.81;5014840;28;8918;-82
2022/07/26 07:33:18;;;;;;;;;14.50;14.00;;;;;34.22;20.84;98709.16;5030214;28;9127;-81
2022/07/26 07:35:52;;;;;;;;;13.00;13.00;;;;;34.26;20.99;98724.03;5031683;28;8882;-82
2022/07/26 07:38:21;;;;;;;;;15.25;15.25;;;;;34.27;20.72;98722.16;5014208;28;8857;-83
2022/07/26 07:40:50;;;;;;;;;13.25;13.25;;;;;34.33;21.16;98719.59;5052727;28;9018;-83
2022/07/26 07:43:19;;;;;;;;;14.00;14.00;;;;;34.32;21.55;98708.94;5075596;27;8821;-83
2022/07/26 07:45:49;;;;;;;;;14.50;14.50;;;;;34.42;21.22;98724.97;5085454;28;8824;-82
2022/07/26 07:48:18;;;;;;;;;12.75;12.75;;;;;34.40;21.34;98719.75;5091861;28;8941;-83
2022/07/26 07:50:47;;;;;;;;;17.75;15.00;;;;;34.51;21.30;98719.38;5108106;28;9756;-80
2022/07/26 07:53:15;;;;;;;;;13.50;13.50;;;;;34.51;21.42;98719.38;5110158;28;8864;-79
2022/07/26 07:55:47;;;;;;;;;13.50;13.50;;;;;34.55;20.88;98718.00;5106482;28;8840;-79
2022/07/26 07:58:16;;;;;;;;;9.75;9.75;;;;;34.64;20.64;98720.69;5092453;28;8867;-79
2022/07/26 08:00:47;;;;;;;;;13.25;13.25;;;;;34.66;20.52;98724.06;5091883;28;8919;-79
2022/07/26 08:03:17;;;;;;;;;14.75;12.75;;;;;34.77;20.03;98729.13;5053613;28;8852;-80
2022/07/26 08:05:47;;;;;;;;;16.50;16.50;;;;;34.85;19.95;98720.09;5098839;28;8848;-80
2022/07/26 08:08:19;;;;;;;;;17.75;17.50;;;;;34.87;20.33;98727.03;5095138;28;8844;-78
2022/07/26 08:10:51;;;;;;;;;17.50;17.00;;;;;34.95;19.95;98728.84;5080837;28;8875;-77
2022/07/26 08:13:21;;;;;;;;;17.75;16.75;;;;;34.97;20.79;98734.09;5092359;28;8879;-80
2022/07/26 08:15:51;;;;;;;;;18.50;18.50;;;;;35.06;20.77;98735.72;5089415;28;8875;-79
2022/07/26 08:18:23;;;;;;;;;17.25;17.00;;;;;35.02;20.46;98734.41;5107514;28;8865;-80
2022/07/26 08:20:53;;;;;;;;;17.00;17.00;;;;;35.12;19.83;98729.59;5108608;28;8873;-81
2022/07/26 08:23:22;;;;;;;;;15.75;14.25;;;;;35.19;19.67;98730.59;5108768;28;8933;-79
2022/07/26 08:25:51;;;;;;;;;16.25;16.00;;;;;35.27;19.54;98730.53;5090505;28;8863;-80
2022/07/26 08:28:27;;;;;;;;;14.00;13.25;;;;;35.34;19.96;98730.69;5093921;28;8853;-80
2022/07/26 08:31:18;;;;;;;;;16.75;16.75;;;;;35.43;20.70;98726.06;5088281;28;8887;-80
2022/07/26 08:33:49;;;;;;;;;15.50;15.50;;;;;35.40;20.89;98721.81;5088125;28;8909;-80
2022/07/26 08:36:17;;;;;;;;;16.50;16.50;;;;;35.48;21.20;98724.47;5089553;28;8982;-80
2022/07/26 08:38:46;;;;;;;;;17.00;16.75;;;;;35.43;21.74;98720.63;5089497;28;9643;-79
2022/07/26 08:41:17;;;;;;;;;19.00;18.00;;;;;35.48;21.65;98715.47;5106331;28;8857;-79
2022/07/26 08:43:46;;;;;;;;;9.67;8.33;;;;;35.49;20.86;98715.31;5054464;28;8933;-76
2022/07/26 08:46:23;;;;;;;;;18.25;17.25;;;;;35.39;21.08;98713.84;5098955;28;8999;-82
2022/07/26 08:48:55;;;;;;;;;15.75;15.50;;;;;35.34;21.09;98723.38;5092594;28;8878;-84
2022/07/26 08:51:26;;;;;;;;;17.00;16.25;;;;;35.50;20.72;98722.44;5096060;28;8851;-82
2022/07/26 08:53:57;;;;;;;;;15.50;15.50;;;;;35.52;21.38;98719.50;5090605;28;8836;-83
2022/07/26 08:56:35;;;;;;;;;18.50;15.50;;;;;35.40;21.07;98716.38;5110573;28;8849;-82
2022/07/26 08:59:13;;;;;;;;;16.00;15.25;;;;;35.48;21.07;98723.63;5069152;28;8876;-84
2022/07/26 09:01:51;;;;;;;;;15.50;15.25;;;;;35.53;20.90;98721.22;5072779;28;8876;-84
2022/07/26 09:04:23;;;;;;;;;16.75;16.75;;;;;35.48;20.69;98721.78;5091908;28;8989;-82
2022/07/26 09:07:05;;;;;;;;;17.75;17.75;;;;;35.52;20.88;98720.38;5103996;28;8875;-87
2022/07/26 09:09:38;;;;;;;;;16.50;16.50;;;;;35.54;20.79;98720.19;5091103;28;8865;-85
2022/07/26 09:12:16;;;;;;;;;14.50;14.50;;;;;35.44;21.04;98716.88;5068085;28;9072;-83
2022/07/26 09:14:46;;;;;;;;;14.00;14.00;;;;;35.44;20.82;98723.13;5085013;28;8845;-85
2022/07/26 09:17:17;;;;;;;;;11.25;10.25;;;;;35.45;20.58;98722.13;5086157;28;8845;-84
2022/07/26 09:20:04;;;;;;;;;15.75;15.50;;;;;35.36;20.96;98722.38;5066957;28;8916;-84
2022/07/26 09:22:33;;;;;;;;;15.50;14.25;;;;;35.39;20.60;98730.13;5067234;28;8859;-86
2022/07/26 09:25:03;;;;;;;;;12.75;12.75;;;;;35.43;20.41;98721.47;5050559;28;8972;-84
2022/07/26 09:27:35;;;;;;;;;18.50;17.00;;;;;35.47;20.29;98721.94;5070291;28;9617;-88
2022/07/26 09:30:08;;;;;;;;;18.00;16.25;;;;;35.32;19.81;98721.88;5084903;28;8863;-83
2022/07/26 09:32:36;;;;;;;;;16.00;15.00;;;;;35.40;20.64;98727.22;5075299;28;8859;-84
2022/07/26 09:35:12;;;;;;;;;14.25;14.00;;;;;35.51;20.02;98725.97;5087560;28;8867;-83
2022/07/26 09:38:11;;;;;;;;;15.75;15.75;;;;;35.52;20.59;98728.50;5076660;28;8899;-83
2022/07/26 09:40:41;;;;;;;;;13.00;13.00;;;;;35.51;20.22;98725.97;5100004;28;8889;-83
2022/07/26 09:43:15;;;;;;;;;15.75;15.25;;;;;35.51;19.79;98731.41;5092466;28;8875;-83
2022/07/26 09:46:06;;;;;;;;;18.25;17.00;;;;;35.56;20.33;98722.72;5088236;28;8853;-86
2022/07/26 09:48:38;;;;;;;;;15.00;15.00;;;;;35.59;20.04;98728.63;5101385;28;8854;-83
2022/07/26 09:51:40;;;;;;;;;15.50;14.50;;;;;35.61;19.34;98723.84;5088033;28;8883;-80
2022/07/26 09:54:10;;;;;;;;;14.50;14.50;;;;;35.68;19.83;98722.13;5082158;28;8943;-79
2022/07/26 09:56:45;;;;;;;;;17.50;17.50;;;;;35.58;20.08;98717.94;5107453;28;8933;-81
2022/07/26 09:59:16;;;;;;;;;15.75;14.25;;;;;35.59;19.94;98722.34;5089635;28;8853;-80
2022/07/26 10:01:46;;;;;;;;;14.00;14.00;;;;;35.67;20.25;98715.00;5101585;28;9012;-81
2022/07/26 10:04:16;;;;;;;;;14.75;14.75;;;;;35.66;19.61;98713.31;5108784;28;8829;-86
2022/07/26 10:06:50;;;;;;;;;13.00;13.00;;;;;35.64;19.94;98711.81;5095905;28;9124;-87
2022/07/26 10:09:22;;;;;;;;;16.50;15.50;;;;;35.45;19.81;98711.28;5083353;28;8955;-83
2022/07/26 10:11:55;;;;;;;;;17.00;14.50;;;;;35.44;20.26;98714.16;5096943;28;8859;-79
2022/07/26 10:14:38;;;;;;;;;16.25;16.00;;;;;35.56;20.68;98720.00;5092345;28;8988;-83
2022/07/26 10:17:49;;;;;;;;;15.75;15.75;;;;;35.60;20.32;98710.50;5105782;28;8841;-78
2022/07/26 10:20:43;;;;;;;;;17.00;16.00;;;;;35.62;20.53;98717.41;5107856;28;8887;-77
2022/07/26 10:23:41;;;;;;;;;13.25;13.25;;;;;35.67;20.09;98717.72;5094030;28;8867;-81
2022/07/26 10:26:33;;;;;;;;;15.25;15.25;;;;;35.57;20.41;98708.13;5095756;28;8856;-81
2022/07/26 10:29:22;;;;;;;;;14.00;14.00;;;;;35.60;20.42;98708.63;5088540;28;8853;-80
2022/07/26 10:32:16;;;;;;;;;17.00;16.00;;;;;35.69;19.99;98702.13;5088669;28;8856;-81
2022/07/26 10:34:46;;;;;;;;;14.25;14.25;;;;;35.74;20.25;98707.00;5075304;28;8840;-70
2022/07/26 10:37:28;;;;;;;;;14.75;14.75;;;;;35.80;19.92;98706.25;5086756;28;8840;-72
2022/07/26 10:40:23;;;;;;;;;18.00;17.50;;;;;35.83;19.44;98700.47;5104532;28;8880;-83
2022/07/26 10:43:06;;;;;;;;;18.75;17.25;;;;;35.95;20.00;98698.13;5083961;28;8867;-81
2022/07/26 10:46:23;;;;;;;;;15.00;15.00;;;;;35.42;19.68;98703.50;5105517;28;8887;-82
2022/07/26 10:48:56;;;;;;;;;17.25;17.25;;;;;35.60;19.85;98703.19;5115395;27;8853;-83
2022/07/26 10:51:27;;;;;;;;;15.75;15.75;;;;;35.76;20.23;98696.78;5123975;27;8972;-89
2022/07/26 10:54:00;;;;;;;;;15.00;15.00;;;;;35.85;20.07;98697.56;5123647;27;8826;-86
2022/07/26 10:56:30;;;;;;;;;15.25;15.25;;;;;35.93;19.33;98694.78;5118197;27;8841;-88
2022/07/26 10:59:04;;;;;;;;;16.50;16.25;;;;;36.11;19.45;98697.97;5137826;27;8938;-85
2022/07/26 11:01:33;;;;;;;;;16.25;15.50;;;;;36.19;19.45;98702.50;5124337;27;10157;-85
2022/07/26 11:04:03;;;;;;;;;14.75;14.75;;;;;36.44;19.70;98700.34;5120224;27;8874;-84
2022/07/26 11:06:32;;;;;;;;;18.75;17.50;;;;;36.57;19.11;98702.41;5132843;27;8850;-87
2022/07/26 11:09:11;;;;;;;;;16.75;15.75;;;;;36.57;19.09;98704.28;5117307;27;8846;-86
2022/07/26 11:11:40;;;;;;;;;17.00;16.75;;;;;36.70;18.81;98707.19;5097299;28;8843;-87
2022/07/26 11:14:18;;;;;;;;;12.75;11.25;;;;;36.85;18.50;98699.00;5046624;28;8859;-83
2022/07/26 11:16:49;;;;;;;;;13.75;13.75;;;;;36.94;18.41;98697.88;5081620;28;8899;-85
2022/07/26 11:19:20;;;;;;;;;16.00;15.00;;;;;37.10;18.07;98685.06;5062900;28;8853;-88
2022/07/26 11:21:55;;;;;;;;;16.00;15.00;;;;;37.25;18.09;98694.03;5090507;28;8845;-85
2022/07/26 11:24:25;;;;;;;;;17.00;16.75;;;;;37.39;17.87;98690.41;5076468;28;8849;-85
2022/07/26 11:26:54;;;;;;;;;16.25;16.25;;;;;37.55;17.61;98697.47;5092249;28;8845;-84
2022/07/26 11:29:28;;;;;;;;;15.50;14.75;;;;;37.76;17.81;98696.63;5082275;28;8852;-82
2022/07/26 11:32:17;;;;;;;;;17.25;17.25;;;;;37.95;17.61;98691.53;5090045;28;8843;-86
2022/07/26 11:34:47;;;;;;;;;16.00;16.00;;;;;37.89;17.22;98693.16;5095424;28;8855;-83
2022/07/26 11:37:16;;;;;;;;;16.75;16.75;;;;;38.00;17.38;98687.16;5082312;28;8912;-83
2022/07/26 11:39:47;;;;;;;;;18.75;18.25;;;;;38.02;17.29;98693.25;5086300;28;8837;-84
2022/07/26 11:42:18;;;;;;;;;19.00;17.75;;;;;38.17;16.67;98689.63;5092987;28;8833;-84
2022/07/26 11:44:50;;;;;;;;;19.00;19.00;;;;;38.17;16.57;98684.16;5109550;28;8872;-85
2022/07/26 11:47:20;;;;;;;;;18.75;18.75;;;;;38.15;16.65;98683.50;5093677;28;8942;-90